Time;durP1;ratioP1;P1;durP2;ratioP2;P2;SDS_P1;SDS_P2;PMS_P1;PMS_P2;Temp;Humidity;BMP_temperature;BMP_pressure;BME280_temperature;BME280_humidity;BME280_pressure;Samples;Min_cycle;Max_cycle;Signal;HPM_P1;HPM_P2
2024/02/01 00:00:20;;;;;;;;;;;;;;;-6.14;100.00;98593.77;110514;1239;68067;-62
2024/02/01 00:03:09;;;;;;;;;;;;;;;-6.18;100.00;98593.89;110465;1237;70841;-62
2024/02/01 00:05:39;;;;;;;;;;;;;;;-6.19;100.00;98593.19;110441;1238;59870;-62
2024/02/01 00:08:08;;;;;;;;;;;;;;;-6.23;100.00;98589.41;110500;1239;59618;-62
2024/02/01 00:10:36;;;;;;;;;;;;;;;-6.25;100.00;98588.70;110580;1239;71886;-62
2024/02/01 00:13:06;;;;;;;;;;;;;;;-6.26;100.00;98580.21;110530;1238;69772;-62
2024/02/01 00:15:35;;;;;;;;;;;;;;;-6.29;100.00;98568.11;110630;1241;69232;-62
2024/02/01 00:18:04;;;;;;;;;;;;;;;-6.28;100.00;98559.33;110599;1239;59763;-62
2024/02/01 00:20:33;;;;;;;;;;;;;;;-6.30;100.00;98555.21;110539;1238;59663;-62
2024/02/01 00:23:02;;;;;;;;;;;;;;;-6.40;100.00;98561.55;110531;1238;71240;-62
2024/02/01 00:25:30;;;;;;;;;;;;;;;-6.50;100.00;98560.55;110468;1239;67714;-62
2024/02/01 00:28:00;;;;;;;;;;;;;;;-6.60;100.00;98558.56;110455;1238;69387;-62
2024/02/01 00:30:28;;;;;;;;;;;;;;;-6.71;100.00;98559.44;110537;1244;59712;-62
2024/02/01 00:32:57;;;;;;;;;;;;;;;-6.78;100.00;98563.06;110440;1244;59747;-62
2024/02/01 00:35:27;;;;;;;;;;;;;;;-6.84;100.00;98562.48;110483;1238;71363;-62
2024/02/01 00:37:56;;;;;;;;;;;;;;;-6.88;100.00;98561.06;110475;1247;69795;-62
2024/02/01 00:40:25;;;;;;;;;;;;;;;-6.90;100.00;98555.59;110409;1241;69744;-62
2024/02/01 00:42:54;;;;;;;;;;;;;;;-6.90;100.00;98551.52;110383;1240;59696;-62
2024/02/01 00:45:23;;;;;;;;;;;;;;;-6.86;100.00;98552.95;110416;1242;59650;-62
2024/02/01 00:47:53;;;;;;;;;;;;;;;-6.86;100.00;98554.30;110364;1240;71341;-62
2024/02/01 00:50:22;;;;;;;;;;;;;;;-6.85;100.00;98558.04;110355;1241;70033;-61
2024/02/01 00:52:51;;;;;;;;;;;;;;;-6.83;100.00;98553.34;110410;1241;69740;-62
2024/02/01 00:55:20;;;;;;;;;;;;;;;-6.84;100.00;98543.99;110309;1241;59727;-62
2024/02/01 00:57:49;;;;;;;;;;;;;;;-6.86;100.00;98542.60;110443;1242;59685;-61
2024/02/01 01:00:18;;;;;;;;;;;;;;;-6.88;100.00;98543.09;110570;1238;71362;-62
2024/02/01 01:02:47;;;;;;;;;;;;;;;-6.87;100.00;98540.22;110520;1241;69152;-62
2024/02/01 01:05:16;;;;;;;;;;;;;;;-6.89;100.00;98539.52;110415;1238;69276;-62
2024/02/01 01:07:45;;;;;;;;;;;;;;;-6.90;100.00;98537.79;110409;1241;59689;-62
2024/02/01 01:10:13;;;;;;;;;;;;;;;-6.93;100.00;98533.19;110408;1240;59628;-62
2024/02/01 01:12:43;;;;;;;;;;;;;;;-6.91;100.00;98539.48;110487;1239;71924;-62
2024/02/01 01:15:11;;;;;;;;;;;;;;;-6.89;100.00;98536.47;110462;1239;69076;-62
2024/02/01 01:17:40;;;;;;;;;;;;;;;-6.89;100.00;98535.61;110439;1245;69200;-62
2024/02/01 01:20:10;;;;;;;;;;;;;;;-6.89;100.00;98530.34;110443;1239;59726;-62
2024/02/01 01:22:40;;;;;;;;;;;;;;;-6.86;100.00;98528.36;110465;1239;59706;-62
2024/02/01 01:25:09;;;;;;;;;;;;;;;-6.83;100.00;98526.55;110470;1239;71986;-62
2024/02/01 01:27:38;;;;;;;;;;;;;;;-6.78;100.00;98527.63;110441;1240;69703;-62
2024/02/01 01:30:07;;;;;;;;;;;;;;;-6.75;100.00;98518.00;110546;1237;69656;-62
2024/02/01 01:32:36;;;;;;;;;;;;;;;-6.72;100.00;98515.52;110447;1244;59788;-62
2024/02/01 01:35:05;;;;;;;;;;;;;;;-6.70;100.00;98516.05;110472;1241;59663;-62
2024/02/01 01:37:34;;;;;;;;;;;;;;;-6.73;100.00;98510.06;110488;1239;71072;-61
2024/02/01 01:40:03;;;;;;;;;;;;;;;-6.75;100.00;98513.77;110555;1240;69924;-61
2024/02/01 01:42:32;;;;;;;;;;;;;;;-6.80;100.00;98510.65;110545;1239;69380;-62
2024/02/01 01:45:01;;;;;;;;;;;;;;;-6.85;100.00;98509.39;110567;1248;59733;-62
2024/02/01 01:47:30;;;;;;;;;;;;;;;-6.85;100.00;98508.55;110477;1241;59671;-60
2024/02/01 01:49:59;;;;;;;;;;;;;;;-6.77;100.00;98508.31;110505;1238;71839;-60
2024/02/01 01:52:29;;;;;;;;;;;;;;;-6.74;100.00;98506.48;110443;1240;69675;-60
2024/02/01 01:54:58;;;;;;;;;;;;;;;-6.71;100.00;98503.98;110400;1241;69663;-60
2024/02/01 01:57:27;;;;;;;;;;;;;;;-6.69;100.00;98501.81;110422;1241;59737;-60
2024/02/01 01:59:57;;;;;;;;;;;;;;;-6.74;100.00;98495.13;110452;1241;59655;-60
2024/02/01 02:02:27;;;;;;;;;;;;;;;-6.85;100.00;98493.98;110422;1241;71948;-60
2024/02/01 02:04:57;;;;;;;;;;;;;;;-6.96;100.00;98487.04;110436;1238;68528;-61
2024/02/01 02:07:26;;;;;;;;;;;;;;;-7.05;100.00;98483.19;110425;1238;69953;-60
2024/02/01 02:10:00;;;;;;;;;;;;;;;-7.11;100.00;98480.05;110411;1239;59751;-61
2024/02/01 02:12:29;;;;;;;;;;;;;;;-7.14;100.00;98477.80;110441;1240;59689;-61
2024/02/01 02:14:59;;;;;;;;;;;;;;;-7.17;100.00;98474.02;110437;1239;71991;-62
2024/02/01 02:17:31;;;;;;;;;;;;;;;-7.20;100.00;98477.39;110575;1238;70305;-61
2024/02/01 02:20:03;;;;;;;;;;;;;;;-7.24;100.00;98477.52;110680;1244;69204;-61
2024/02/01 02:22:32;;;;;;;;;;;;;;;-7.28;100.00;98479.80;110508;1241;59767;-61
2024/02/01 02:25:05;;;;;;;;;;;;;;;-7.32;100.00;98480.42;110439;1241;59687;-62
2024/02/01 02:27:33;;;;;;;;;;;;;;;-7.34;100.00;98478.71;110474;1240;71775;-61
2024/02/01 02:30:03;;;;;;;;;;;;;;;-7.35;100.00;98478.17;110556;1241;68454;-62
2024/02/01 02:32:32;;;;;;;;;;;;;;;-7.36;100.00;98480.19;110495;1241;70334;-61
2024/02/01 02:35:01;;;;;;;;;;;;;;;-7.35;100.00;98481.88;110441;1241;59841;-61
2024/02/01 02:37:30;;;;;;;;;;;;;;;-7.36;100.00;98474.94;110424;1241;59671;-62
2024/02/01 02:39:58;;;;;;;;;;;;;;;-7.35;100.00;98476.64;110429;1241;71796;-61
2024/02/01 02:42:27;;;;;;;;;;;;;;;-7.34;100.00;98479.20;110434;1238;69809;-61
2024/02/01 02:44:57;;;;;;;;;;;;;;;-7.37;100.00;98473.41;110443;1240;69070;-61
2024/02/01 02:47:25;;;;;;;;;;;;;;;-7.41;100.00;98468.77;110527;1240;59735;-61
2024/02/01 02:49:54;;;;;;;;;;;;;;;-7.44;100.00;98475.84;110405;1241;59692;-62
2024/02/01 02:52:23;;;;;;;;;;;;;;;-7.51;100.00;98474.54;110454;1241;72179;-62
2024/02/01 02:54:52;;;;;;;;;;;;;;;-7.58;100.00;98476.30;110431;1240;69244;-61
2024/02/01 02:57:21;;;;;;;;;;;;;;;-7.63;100.00;98474.02;110429;1241;69109;-61
2024/02/01 02:59:50;;;;;;;;;;;;;;;-7.65;100.00;98470.42;110413;1240;59693;-61
2024/02/01 03:02:19;;;;;;;;;;;;;;;-7.65;100.00;98465.35;110498;1241;59652;-61
2024/02/01 03:04:48;;;;;;;;;;;;;;;-7.62;100.00;98462.52;110480;1237;70172;-61
2024/02/01 03:07:16;;;;;;;;;;;;;;;-7.61;100.00;98456.44;110495;1238;68919;-62
2024/02/01 03:09:45;;;;;;;;;;;;;;;-7.61;100.00;98452.38;110515;1238;69502;-63
2024/02/01 03:12:14;;;;;;;;;;;;;;;-7.61;100.00;98449.84;110483;1241;59740;-63
2024/02/01 03:14:44;;;;;;;;;;;;;;;-7.59;100.00;98446.30;110475;1240;59711;-61
2024/02/01 03:17:13;;;;;;;;;;;;;;;-7.59;100.00;98445.29;110450;1237;71872;-61
2024/02/01 03:19:42;;;;;;;;;;;;;;;-7.58;100.00;98442.59;110445;1240;68892;-61
2024/02/01 03:22:11;;;;;;;;;;;;;;;-7.58;100.00;98443.12;110609;1241;69205;-61
2024/02/01 03:24:40;;;;;;;;;;;;;;;-7.56;100.00;98448.22;110464;1241;59729;-61
2024/02/01 03:27:11;;;;;;;;;;;;;;;-7.56;100.00;98438.56;110458;1240;59641;-61
2024/02/01 03:29:41;;;;;;;;;;;;;;;-7.56;100.00;98436.04;110390;1241;71308;-61
2024/02/01 03:32:11;;;;;;;;;;;;;;;-7.54;100.00;98433.70;110427;1237;69886;-61
2024/02/01 03:34:42;;;;;;;;;;;;;;;-7.53;100.00;98427.95;110426;1238;69435;-61
2024/02/01 03:37:14;;;;;;;;;;;;;;;-7.52;100.00;98433.21;110422;1240;59682;-61
2024/02/01 03:39:43;;;;;;;;;;;;;;;-7.55;100.00;98435.88;110430;1241;59657;-61
2024/02/01 03:42:12;;;;;;;;;;;;;;;-7.61;100.00;98438.49;110362;1238;70915;-61
2024/02/01 03:44:41;;;;;;;;;;;;;;;-7.61;100.00;98436.13;110433;1238;69049;-61
2024/02/01 03:47:10;;;;;;;;;;;;;;;-7.62;100.00;98432.56;110378;1241;69864;-61
2024/02/01 03:49:39;;;;;;;;;;;;;;;-7.61;100.00;98431.38;110477;1238;59760;-61
2024/02/01 03:52:09;;;;;;;;;;;;;;;-7.61;100.00;98428.34;110428;1240;59721;-61
2024/02/01 03:54:38;;;;;;;;;;;;;;;-7.61;100.00;98427.84;110422;1237;70546;-61
2024/02/01 03:57:09;;;;;;;;;;;;;;;-7.59;100.00;98425.81;110488;1240;69131;-61
2024/02/01 03:59:41;;;;;;;;;;;;;;;-7.59;100.00;98426.33;110369;1240;69337;-61
2024/02/01 04:02:14;;;;;;;;;;;;;;;-7.58;100.00;98422.79;110399;1241;59685;-61
2024/02/01 04:04:45;;;;;;;;;;;;;;;-7.57;100.00;98427.89;110656;1238;59741;-61
2024/02/01 04:07:18;;;;;;;;;;;;;;;-7.58;100.00;98432.10;110379;1241;71883;-60
2024/02/01 04:09:47;;;;;;;;;;;;;;;-7.61;100.00;98432.24;110394;1241;69525;-61
2024/02/01 04:12:16;;;;;;;;;;;;;;;-7.62;100.00;98425.44;110361;1240;69294;-61
2024/02/01 04:14:45;;;;;;;;;;;;;;;-7.63;100.00;98423.72;110516;1242;59734;-61
2024/02/01 04:17:14;;;;;;;;;;;;;;;-7.62;100.00;98423.59;110570;1241;59659;-61
2024/02/01 04:19:43;;;;;;;;;;;;;;;-7.60;100.00;98418.36;110437;1238;71793;-61
2024/02/01 04:22:12;;;;;;;;;;;;;;;-7.61;100.00;98413.27;110399;1241;69054;-61
2024/02/01 04:24:41;;;;;;;;;;;;;;;-7.61;100.00;98418.70;110470;1240;69236;-61
2024/02/01 04:27:11;;;;;;;;;;;;;;;-7.61;100.00;98407.35;110487;1241;59630;-61
2024/02/01 04:29:40;;;;;;;;;;;;;;;-7.61;100.00;98413.45;110462;1239;59734;-61
2024/02/01 04:32:10;;;;;;;;;;;;;;;-7.62;100.00;98415.30;110422;1240;71363;-61
2024/02/01 04:34:39;;;;;;;;;;;;;;;-7.61;100.00;98417.33;110481;1242;69704;-61
2024/02/01 04:37:12;;;;;;;;;;;;;;;-7.61;100.00;98408.88;110458;1241;69107;-61
2024/02/01 04:39:41;;;;;;;;;;;;;;;-7.61;100.00;98400.73;110446;1240;59756;-62
2024/02/01 04:42:17;;;;;;;;;;;;;;;-7.61;100.00;98395.67;110499;1238;59708;-61
2024/02/01 04:44:46;;;;;;;;;;;;;;;-7.61;100.00;98404.64;110478;1241;71539;-61
2024/02/01 04:47:16;;;;;;;;;;;;;;;-7.62;100.00;98406.30;110662;1239;69824;-61
2024/02/01 04:49:45;;;;;;;;;;;;;;;-7.67;100.00;98405.73;110489;1240;69875;-61
2024/02/01 04:52:13;;;;;;;;;;;;;;;-7.71;100.00;98408.39;110446;1240;59703;-61
2024/02/01 04:54:43;;;;;;;;;;;;;;;-7.73;100.00;98411.05;110505;1238;59665;-61
2024/02/01 04:57:13;;;;;;;;;;;;;;;-7.74;100.00;98407.48;110429;1238;70638;-61
2024/02/01 04:59:43;;;;;;;;;;;;;;;-7.73;100.00;98410.20;110519;1240;69102;-61
2024/02/01 05:02:14;;;;;;;;;;;;;;;-7.72;100.00;98412.11;110379;1238;69831;-61
2024/02/01 05:04:43;;;;;;;;;;;;;;;-7.74;100.00;98416.96;110418;1241;59708;-61
2024/02/01 05:07:12;;;;;;;;;;;;;;;-7.75;100.00;98413.91;110487;1241;59624;-61
2024/02/01 05:09:42;;;;;;;;;;;;;;;-7.77;100.00;98412.50;110459;1241;71936;-60
2024/02/01 05:12:10;;;;;;;;;;;;;;;-7.76;100.00;98413.20;110390;1241;69669;-61
2024/02/01 05:14:40;;;;;;;;;;;;;;;-7.77;100.00;98421.31;110483;1241;69877;-61
2024/02/01 05:17:09;;;;;;;;;;;;;;;-7.82;100.00;98422.42;110477;1238;59661;-61
2024/02/01 05:19:37;;;;;;;;;;;;;;;-7.86;100.00;98424.04;110538;1239;59760;-61
2024/02/01 05:22:07;;;;;;;;;;;;;;;-7.89;100.00;98423.16;110505;1240;71888;-61
2024/02/01 05:24:35;;;;;;;;;;;;;;;-7.90;100.00;98423.14;110504;1238;69991;-61
2024/02/01 05:27:07;;;;;;;;;;;;;;;-7.92;100.00;98423.45;110668;1238;68127;-61
2024/02/01 05:29:39;;;;;;;;;;;;;;;-7.91;100.00;98415.16;110581;1239;59617;-61
2024/02/01 05:32:08;;;;;;;;;;;;;;;-7.92;100.00;98410.42;110584;1238;59616;-61
2024/02/01 05:34:37;;;;;;;;;;;;;;;-7.94;100.00;98404.64;110496;1241;71177;-61
2024/02/01 05:37:06;;;;;;;;;;;;;;;-7.94;100.00;98400.41;110610;1238;69227;-59
2024/02/01 05:39:34;;;;;;;;;;;;;;;-7.92;100.00;98389.27;110449;1240;69171;-61
2024/02/01 05:42:04;;;;;;;;;;;;;;;-7.89;100.00;98393.71;110436;1241;59661;-60
2024/02/01 05:44:33;;;;;;;;;;;;;;;-7.85;100.00;98393.44;110491;1241;59607;-63
2024/02/01 05:47:05;;;;;;;;;;;;;;;-7.86;100.00;98390.19;110609;1237;70645;-62
2024/02/01 05:49:35;;;;;;;;;;;;;;;-7.86;100.00;98383.77;110638;1239;69760;-62
2024/02/01 05:52:04;;;;;;;;;;;;;;;-7.87;100.00;98380.20;110546;1241;69235;-62
2024/02/01 05:54:34;;;;;;;;;;;;;;;-7.89;100.00;98375.10;110605;1237;59799;-63
2024/02/01 05:57:03;;;;;;;;;;;;;;;-7.89;100.00;98375.45;110584;1238;59680;-62
2024/02/01 05:59:33;;;;;;;;;;;;;;;-7.88;100.00;98369.53;110522;1241;71818;-62
2024/02/01 06:02:05;;;;;;;;;;;;;;;-7.87;100.00;98366.15;110502;1241;69240;-60
2024/02/01 06:04:34;;;;;;;;;;;;;;;-7.84;100.00;98356.73;110584;1237;69291;-63
2024/02/01 06:07:06;;;;;;;;;;;;;;;-7.82;100.00;98355.91;110465;1239;59741;-60
2024/02/01 06:09:36;;;;;;;;;;;;;;;-7.80;100.00;98351.89;110490;1241;59687;-60
2024/02/01 06:12:05;;;;;;;;;;;;;;;-7.77;100.00;98346.67;110454;1239;72013;-60
2024/02/01 06:14:34;;;;;;;;;;;;;;;-7.73;100.00;98343.52;110596;1238;69640;-62
2024/02/01 06:17:03;;;;;;;;;;;;;;;-7.70;100.00;98345.43;110624;1238;69656;-61
2024/02/01 06:19:32;;;;;;;;;;;;;;;-7.66;100.00;98347.16;110579;1238;59744;-61
2024/02/01 06:22:05;;;;;;;;;;;;;;;-7.63;100.00;98348.73;110483;1241;59644;-60
2024/02/01 06:24:34;;;;;;;;;;;;;;;-7.58;100.00;98348.80;110624;1238;72029;-61
2024/02/01 06:27:04;;;;;;;;;;;;;;;-7.52;100.00;98345.67;110583;1241;68867;-63
2024/02/01 06:29:32;;;;;;;;;;;;;;;-7.44;100.00;98344.60;110567;1242;69836;-61
2024/02/01 06:32:02;;;;;;;;;;;;;;;-7.33;100.00;98341.85;110572;1242;59692;-63
2024/02/01 06:34:38;;;;;;;;;;;;;;;-7.23;100.00;98345.38;110526;1240;59616;-61
2024/02/01 06:37:08;;;;;;;;;;;;;;;-7.16;100.00;98347.49;110604;1239;71633;-61
2024/02/01 06:39:43;;;;;;;;;;;;;;;-7.13;100.00;98341.42;110565;1241;68617;-61
2024/02/01 06:42:17;;;;;;;;;;;;;;;-7.10;100.00;98344.84;110554;1238;68322;-61
2024/02/01 06:44:48;;;;;;;;;;;;;;;-7.07;100.00;98349.98;110729;1238;59732;-60
2024/02/01 06:47:36;;;;;;;;;;;;;;;-7.03;100.00;98344.59;110687;1237;59690;-60
2024/02/01 06:50:15;;;;;;;;;;;;;;;-6.95;100.00;98347.91;110685;1239;71298;-61
2024/02/01 06:52:46;;;;;;;;;;;;;;;-6.85;100.00;98350.39;110730;1239;69614;-61
2024/02/01 06:55:36;;;;;;;;;;;;;;;-6.72;100.00;98354.95;110630;1238;68316;-61
2024/02/01 06:58:05;;;;;;;;;;;;;;;-6.54;100.00;98351.40;110619;1239;59756;-62
2024/02/01 07:00:53;;;;;;;;;;;;;;;-6.35;100.00;98346.15;110570;1239;59710;-62
2024/02/01 07:08:26;;;;;;;;;;;;;;;-5.10;100.00;98337.60;110469;1238;69273;-62
2024/02/01 07:11:14;;;;;;;;;;;;;;;-4.56;100.00;98344.23;110459;1240;60058;-62
2024/02/01 07:16:21;;;;;;;;;;;;;;;-3.49;100.00;98332.65;110641;1238;70892;-62
2024/02/01 07:22:00;;;;;;;;;;;;;;;-2.41;99.32;98334.40;110641;1239;69375;-62
2024/02/01 07:58:16;;;;;;;;;;;;;;;1.46;76.25;98347.00;110646;1238;70359;-61
2024/02/01 08:00:51;;;;;;;;;;;;;;;1.53;79.13;98345.49;110639;1239;68480;-62
2024/02/01 08:08:43;;;;;;;;;;;;;;;0.51;83.59;98336.19;110682;1240;59645;-62
2024/02/01 08:11:17;;;;;;;;;;;;;;;0.56;85.17;98337.45;110619;1239;70510;-62
2024/02/01 08:13:50;;;;;;;;;;;;;;;0.82;84.52;98338.88;110617;1238;69188;-63
2024/02/01 08:16:20;;;;;;;;;;;;;;;0.83;85.56;98336.10;110599;1238;69613;-63
2024/02/01 08:18:49;;;;;;;;;;;;;;;1.24;83.56;98333.73;110318;1239;59676;-62
2024/02/01 08:21:19;;;;;;;;;;;;;;;1.46;82.04;98329.33;110322;1237;59780;-62
2024/02/01 08:23:54;;;;;;;;;;;;;;;1.75;81.21;98324.05;110435;1239;71249;-63
2024/02/01 08:26:24;;;;;;;;;;;;;;;1.70;80.97;98324.48;110471;1238;69228;-62
2024/02/01 08:28:53;;;;;;;;;;;;;;;1.49;81.85;98323.94;110468;1237;69474;-63
2024/02/01 08:31:24;;;;;;;;;;;;;;;1.05;83.55;98323.99;110532;1239;60046;-62
2024/02/01 08:33:53;;;;;;;;;;;;;;;1.13;84.25;98328.83;110515;1237;59746;-63
2024/02/01 08:36:22;;;;;;;;;;;;;;;1.07;84.88;98322.92;110460;1241;71819;-63
2024/02/01 08:38:51;;;;;;;;;;;;;;;0.91;86.68;98321.54;110576;1241;69691;-62
2024/02/01 08:41:21;;;;;;;;;;;;;;;0.89;88.56;98317.95;110446;1239;69242;-62
2024/02/01 08:43:49;;;;;;;;;;;;;;;0.79;88.89;98318.17;110434;1239;59715;-62
2024/02/01 08:46:22;;;;;;;;;;;;;;;0.76;91.01;98317.35;110429;1239;59676;-62
2024/02/01 08:48:51;;;;;;;;;;;;;;;0.67;89.88;98308.60;110610;1239;70872;-62
2024/02/01 08:51:20;;;;;;;;;;;;;;;0.70;89.45;98307.35;110547;1237;69277;-62
2024/02/01 08:53:52;;;;;;;;;;;;;;;0.70;87.62;98303.06;110471;1239;69188;-62
2024/02/01 08:56:21;;;;;;;;;;;;;;;0.54;87.05;98300.79;110461;1237;59808;-62
2024/02/01 08:58:49;;;;;;;;;;;;;;;0.46;89.18;98304.53;110443;1238;59661;-62
2024/02/01 09:01:22;;;;;;;;;;;;;;;0.42;92.80;98301.87;110470;1237;70709;-62
2024/02/01 09:03:52;;;;;;;;;;;;;;;0.54;91.56;98295.13;110456;1241;69161;-63
2024/02/01 09:06:21;;;;;;;;;;;;;;;0.59;90.77;98296.39;110461;1239;69823;-62
2024/02/01 09:08:50;;;;;;;;;;;;;;;0.66;90.29;98298.85;110427;1239;59750;-62
2024/02/01 09:11:19;;;;;;;;;;;;;;;0.71;89.15;98299.44;110490;1241;59691;-62
2024/02/01 09:13:48;;;;;;;;;;;;;;;0.62;88.13;98301.33;110513;1238;71698;-62
2024/02/01 09:16:30;;;;;;;;;;;;;;;0.59;90.09;98303.61;110646;1238;69836;-62
2024/02/01 09:19:02;;;;;;;;;;;;;;;0.50;89.28;98300.68;110387;1238;69896;-62
2024/02/01 09:21:31;;;;;;;;;;;;;;;0.70;91.49;98301.00;110452;1238;59815;-63
2024/02/01 09:24:00;;;;;;;;;;;;;;;0.72;92.11;98299.41;110453;1241;59750;-62
2024/02/01 09:26:29;;;;;;;;;;;;;;;0.78;90.56;98298.63;110461;1238;70371;-62
2024/02/01 09:28:58;;;;;;;;;;;;;;;1.00;88.88;98295.77;110403;1238;70017;-62
2024/02/01 09:31:27;;;;;;;;;;;;;;;1.24;89.10;98287.38;110563;1240;69890;-62
2024/02/01 09:33:56;;;;;;;;;;;;;;;1.43;87.58;98284.56;110489;1239;59662;-62
2024/02/01 09:36:26;;;;;;;;;;;;;;;1.65;85.92;98287.48;110476;1239;59728;-63
2024/02/01 09:38:54;;;;;;;;;;;;;;;1.83;84.69;98277.27;110439;1240;71260;-63
2024/02/01 09:41:25;;;;;;;;;;;;;;;1.95;82.93;98269.92;110556;1238;69982;-63
2024/02/01 09:43:54;;;;;;;;;;;;;;;1.87;82.60;98266.70;110468;1241;69168;-63
2024/02/01 09:46:24;;;;;;;;;;;;;;;1.68;84.39;98270.41;110323;1242;60062;-63
2024/02/01 09:48:52;;;;;;;;;;;;;;;1.71;85.61;98268.30;110461;1241;59659;-62
2024/02/01 09:51:22;;;;;;;;;;;;;;;1.81;84.36;98265.13;110525;1239;71522;-61
2024/02/01 09:53:51;;;;;;;;;;;;;;;1.61;85.74;98260.95;110485;1238;69100;-61
2024/02/01 09:56:25;;;;;;;;;;;;;;;1.83;85.81;98250.98;110546;1238;69243;-61
2024/02/01 09:58:58;;;;;;;;;;;;;;;1.90;85.49;98248.05;110480;1240;59660;-61
2024/02/01 10:01:28;;;;;;;;;;;;;;;2.02;84.05;98244.33;110593;1238;59672;-63
2024/02/01 10:03:57;;;;;;;;;;;;;;;1.98;84.84;98236.85;110465;1239;71985;-61
2024/02/01 10:06:26;;;;;;;;;;;;;;;2.03;84.45;98233.29;110427;1239;69807;-61
2024/02/01 10:08:55;;;;;;;;;;;;;;;2.02;84.39;98230.39;110453;1238;69699;-61
2024/02/01 10:11:24;;;;;;;;;;;;;;;2.26;84.64;98224.59;110341;1238;59785;-61
2024/02/01 10:13:57;;;;;;;;;;;;;;;2.33;81.90;98222.69;110474;1242;59704;-61
2024/02/01 10:16:35;;;;;;;;;;;;;;;2.40;81.16;98222.84;110510;1241;71915;-61
2024/02/01 10:19:09;;;;;;;;;;;;;;;2.73;80.49;98214.02;110463;1241;70190;-61
2024/02/01 10:21:39;;;;;;;;;;;;;;;2.88;79.79;98209.47;110324;1238;69236;-61
2024/02/01 10:24:20;;;;;;;;;;;;;;;2.71;78.53;98212.52;110378;1238;59744;-61
2024/02/01 10:26:52;;;;;;;;;;;;;;;2.91;77.54;98205.58;110381;1238;59824;-61
2024/02/01 10:29:21;;;;;;;;;;;;;;;3.12;76.87;98197.90;110340;1241;72433;-63
2024/02/01 10:31:53;;;;;;;;;;;;;;;3.34;76.58;98186.88;110415;1241;69871;-61
2024/02/01 10:34:23;;;;;;;;;;;;;;;3.61;73.70;98189.44;110446;1242;69754;-62
2024/02/01 10:36:53;;;;;;;;;;;;;;;3.99;75.82;98183.36;110328;1242;59957;-62
2024/02/01 10:39:25;;;;;;;;;;;;;;;4.51;72.11;98179.30;110470;1248;59667;-62
2024/02/01 10:41:58;;;;;;;;;;;;;;;5.22;72.33;98171.77;110380;1238;70963;-62
2024/02/01 10:44:32;;;;;;;;;;;;;;;6.32;65.15;98173.82;110410;1241;69820;-62
2024/02/01 10:47:12;;;;;;;;;;;;;;;6.96;59.28;98171.14;110453;1238;68342;-62
2024/02/01 10:49:44;;;;;;;;;;;;;;;7.39;56.38;98163.56;110446;1238;59724;-63
2024/02/01 10:52:13;;;;;;;;;;;;;;;8.12;53.82;98163.08;110497;1238;59680;-63
2024/02/01 10:54:42;;;;;;;;;;;;;;;8.48;52.65;98159.71;110399;1238;72011;-61
2024/02/01 10:57:12;;;;;;;;;;;;;;;8.38;52.80;98152.40;110581;1241;69492;-63
2024/02/01 10:59:43;;;;;;;;;;;;;;;8.10;52.77;98155.92;110289;1238;69230;-63
2024/02/01 11:02:12;;;;;;;;;;;;;;;8.28;53.55;98154.11;110430;1241;59762;-62
2024/02/01 11:04:48;;;;;;;;;;;;;;;7.45;54.01;98144.73;110417;1238;59715;-62
2024/02/01 11:07:18;;;;;;;;;;;;;;;6.71;54.96;98148.73;110392;1247;71757;-63
2024/02/01 11:09:48;;;;;;;;;;;;;;;6.08;56.48;98147.00;110556;1241;69814;-63
2024/02/01 11:12:24;;;;;;;;;;;;;;;5.98;57.81;98148.30;110637;1239;69151;-63
2024/02/01 11:14:57;;;;;;;;;;;;;;;5.33;60.61;98143.55;109934;1237;673832;-63
2024/02/01 11:17:26;;;;;;;;;;;;;;;4.98;61.80;98141.10;110535;1241;59663;-61
2024/02/01 11:19:55;;;;;;;;;;;;;;;4.76;62.81;98131.75;110554;1237;71967;-62
2024/02/01 11:22:28;;;;;;;;;;;;;;;4.82;63.42;98129.28;110660;1239;68795;-62
2024/02/01 11:25:05;;;;;;;;;;;;;;;4.81;62.35;98124.33;110611;1239;69959;-63
2024/02/01 11:27:37;;;;;;;;;;;;;;;4.64;63.85;98119.79;110579;1238;59702;-61
2024/02/01 11:30:24;;;;;;;;;;;;;;;4.73;63.02;98107.69;110453;1239;59672;-63
2024/02/01 11:32:53;;;;;;;;;;;;;;;4.66;63.45;98106.05;110541;1241;72276;-61
2024/02/01 11:35:25;;;;;;;;;;;;;;;4.53;64.20;98107.92;110638;1239;69046;-62
2024/02/01 11:37:55;;;;;;;;;;;;;;;4.45;65.22;98107.38;110619;1239;69855;-61
2024/02/01 11:40:24;;;;;;;;;;;;;;;4.32;64.59;98102.16;110623;1238;59711;-62
2024/02/01 11:42:53;;;;;;;;;;;;;;;4.23;65.82;98093.17;110617;1237;59654;-62
2024/02/01 11:45:22;;;;;;;;;;;;;;;4.36;64.62;98082.34;110643;1239;71207;-61
2024/02/01 11:47:51;;;;;;;;;;;;;;;4.42;64.38;98077.80;110633;1239;69938;-62
2024/02/01 11:50:23;;;;;;;;;;;;;;;4.38;64.42;98085.53;110578;1239;69830;-62
2024/02/01 11:53:09;;;;;;;;;;;;;;;3.97;66.32;98089.23;110655;1239;59724;-62
2024/02/01 11:55:39;;;;;;;;;;;;;;;3.88;66.17;98078.20;110574;1239;59614;-62
2024/02/01 11:58:12;;;;;;;;;;;;;;;3.52;68.05;98082.70;110604;1240;71207;-62
2024/02/01 12:00:42;;;;;;;;;;;;;;;3.42;68.58;98075.30;110446;1237;69391;-62
2024/02/01 12:03:32;;;;;;;;;;;;;;;3.23;70.40;98070.59;110460;1239;69795;-61
2024/02/01 12:06:01;;;;;;;;;;;;;;;3.11;70.76;98067.71;110395;1238;59676;-62
2024/02/01 12:08:31;;;;;;;;;;;;;;;3.16;70.37;98060.65;110466;1239;59628;-62
2024/02/01 12:11:06;;;;;;;;;;;;;;;3.00;71.13;98052.23;110627;1239;72024;-63
2024/02/01 12:13:36;;;;;;;;;;;;;;;2.86;72.66;98053.36;110634;1239;69039;-63
2024/02/01 12:16:05;;;;;;;;;;;;;;;2.73;76.07;98049.46;110745;1236;69693;-63
2024/02/01 12:18:34;;;;;;;;;;;;;;;2.87;74.90;98049.90;110691;1239;59756;-63
2024/02/01 12:21:09;;;;;;;;;;;;;;;2.93;74.54;98051.06;110517;1242;59675;-63
2024/02/01 12:23:38;;;;;;;;;;;;;;;3.16;72.56;98044.48;110412;1243;71265;-63
2024/02/01 12:26:07;;;;;;;;;;;;;;;3.35;72.40;98043.48;110425;1239;69813;-63
2024/02/01 12:28:36;;;;;;;;;;;;;;;3.50;72.89;98040.91;110455;1238;69834;-61
2024/02/01 12:31:04;;;;;;;;;;;;;;;3.72;71.40;98047.38;110544;1240;59728;-61
2024/02/01 12:33:39;;;;;;;;;;;;;;;4.06;70.02;98043.40;110427;1241;59656;-61
2024/02/01 12:36:08;;;;;;;;;;;;;;;4.57;68.70;98032.35;110766;1237;71803;-62
2024/02/01 12:38:44;;;;;;;;;;;;;;;5.08;67.06;98030.64;110674;1239;69205;-62
2024/02/01 12:41:14;;;;;;;;;;;;;;;5.41;66.17;98024.63;110630;1239;69703;-62
2024/02/01 12:43:44;;;;;;;;;;;;;;;5.56;64.27;98020.15;110617;1245;59743;-62
2024/02/01 12:46:13;;;;;;;;;;;;;;;5.64;61.71;98020.52;110651;1246;59666;-62
2024/02/01 12:48:42;;;;;;;;;;;;;;;6.01;62.20;98015.27;110596;1239;71159;-62
2024/02/01 12:51:11;;;;;;;;;;;;;;;6.97;61.94;98010.46;110616;1237;69417;-62
2024/02/01 12:53:40;;;;;;;;;;;;;;;7.87;60.99;98004.34;110603;1239;69829;-62
2024/02/01 12:56:10;;;;;;;;;;;;;;;8.32;57.53;97998.30;110610;1239;59660;-62
2024/02/01 12:58:40;;;;;;;;;;;;;;;7.93;55.94;97997.75;110635;1238;59652;-61
2024/02/01 13:01:09;;;;;;;;;;;;;;;7.31;56.75;97992.80;110626;1238;71918;-61
2024/02/01 13:03:38;;;;;;;;;;;;;;;6.62;56.81;97988.41;110635;1239;69804;-61
2024/02/01 13:06:07;;;;;;;;;;;;;;;6.32;57.98;97989.81;110615;1239;69759;-63
2024/02/01 13:08:39;;;;;;;;;;;;;;;6.08;58.92;97990.58;110430;1238;59685;-62
2024/02/01 13:11:08;;;;;;;;;;;;;;;5.91;59.13;97988.02;110540;1240;60137;-61
2024/02/01 13:13:38;;;;;;;;;;;;;;;5.43;60.03;97992.91;110555;1238;71283;-62
2024/02/01 13:16:07;;;;;;;;;;;;;;;4.92;61.98;97987.61;110571;1242;69199;-62
2024/02/01 13:18:37;;;;;;;;;;;;;;;4.46;63.93;97980.64;110538;1238;69304;-62
2024/02/01 13:21:07;;;;;;;;;;;;;;;4.17;64.68;97972.95;110490;1238;59690;-61
2024/02/01 13:23:36;;;;;;;;;;;;;;;4.04;66.21;97965.85;110546;1241;59653;-61
2024/02/01 13:26:05;;;;;;;;;;;;;;;3.99;67.73;97955.35;110516;1242;71165;-61
2024/02/01 13:28:37;;;;;;;;;;;;;;;3.96;66.59;97951.00;110474;1238;69205;-62
2024/02/01 13:31:06;;;;;;;;;;;;;;;3.86;65.49;97949.98;110514;1239;69923;-62
2024/02/01 13:33:39;;;;;;;;;;;;;;;3.71;66.07;97945.88;110432;1237;59798;-62
2024/02/01 13:36:08;;;;;;;;;;;;;;;3.53;66.37;97954.63;110505;1239;59673;-61
2024/02/01 13:38:38;;;;;;;;;;;;;;;3.38;68.40;97961.05;110496;1240;70879;-61
2024/02/01 13:41:08;;;;;;;;;;;;;;;3.23;69.83;97962.58;110541;1239;70284;-62